createdAt,value
2023-02-19T00:01:34.040Z,24.73
2023-02-19T00:04:02.011Z,22.02
2023-02-19T00:06:29.658Z,23.45
2023-02-19T00:08:57.005Z,22.80
2023-02-19T00:11:25.032Z,20.70
2023-02-19T00:13:53.187Z,19.42
2023-02-19T00:16:21.256Z,19.52
2023-02-19T00:18:48.414Z,16.20
2023-02-19T00:21:17.296Z,14.95
2023-02-19T00:23:44.537Z,15.27
2023-02-19T00:26:18.179Z,16.63
2023-02-19T00:28:46.035Z,18.43
2023-02-19T00:31:13.606Z,17.85
2023-02-19T00:33:41.144Z,16.45
2023-02-19T00:36:08.399Z,24.73
2023-02-19T00:38:38.680Z,22.27
2023-02-19T00:41:19.006Z,15.55
2023-02-19T00:43:48.958Z,19.02
2023-02-19T00:46:17.646Z,18.85
2023-02-19T00:48:44.841Z,20.23
2023-02-19T00:51:12.164Z,22.02
2023-02-19T00:53:40.118Z,21.58
2023-02-19T00:56:07.424Z,20.75
2023-02-19T00:58:34.597Z,16.15
2023-02-19T01:01:01.803Z,22.25
2023-02-19T01:03:28.971Z,16.73
2023-02-19T01:05:56.180Z,20.20
2023-02-19T01:08:23.380Z,17.33
2023-02-19T01:10:50.545Z,20.80
2023-02-19T01:13:17.877Z,19.48
2023-02-19T01:15:45.272Z,21.45
2023-02-19T01:18:12.465Z,23.63
2023-02-19T01:20:40.764Z,18.13
2023-02-19T01:23:08.007Z,19.25
2023-02-19T01:25:35.161Z,19.13
2023-02-19T01:28:02.341Z,18.80
2023-02-19T01:30:29.568Z,22.88
2023-02-19T01:32:56.739Z,21.58
2023-02-19T01:35:23.960Z,21.50
2023-02-19T01:37:51.166Z,21.90
2023-02-19T01:40:18.423Z,24.35
2023-02-19T01:42:45.591Z,26.33
2023-02-19T01:45:23.368Z,23.80
2023-02-19T01:48:01.173Z,20.97
2023-02-19T01:50:28.956Z,22.85
2023-02-19T01:52:56.402Z,19.63
2023-02-19T01:55:23.590Z,26.20
2023-02-19T01:57:51.194Z,20.98
2023-02-19T02:00:18.434Z,26.85
2023-02-19T02:02:48.658Z,27.25
2023-02-19T02:05:21.105Z,20.83
2023-02-19T02:08:06.724Z,24.45
2023-02-19T02:10:34.509Z,22.58
2023-02-19T02:13:01.678Z,22.42
2023-02-19T02:15:30.532Z,24.40
2023-02-19T02:17:58.338Z,25.63
2023-02-19T02:20:38.446Z,26.88
2023-02-19T02:23:05.598Z,22.52
2023-02-19T02:25:41.972Z,25.67
2023-02-19T02:28:16.092Z,22.85
2023-02-19T02:30:43.328Z,23.63
2023-02-19T02:33:19.532Z,24.05
2023-02-19T02:35:48.870Z,24.70
2023-02-19T02:38:16.118Z,21.77
2023-02-19T02:40:43.745Z,21.20
2023-02-19T02:43:11.767Z,22.30
2023-02-19T02:45:39.995Z,22.67
2023-02-19T02:48:07.214Z,25.90
2023-02-19T02:50:36.818Z,29.63
2023-02-19T02:53:22.818Z,24.00
2023-02-19T02:55:50.455Z,23.42
2023-02-19T02:58:17.641Z,22.55
2023-02-19T03:01:03.207Z,23.48
2023-02-19T03:03:30.419Z,25.85
2023-02-19T03:05:59.400Z,21.98
2023-02-19T03:08:36.556Z,24.67
2023-02-19T03:11:25.178Z,23.70
2023-02-19T03:14:16.275Z,22.60
2023-02-19T03:17:02.271Z,22.00
2023-02-19T03:19:29.522Z,26.00
2023-02-19T03:22:09.852Z,22.38
2023-02-19T03:24:57.869Z,22.33
2023-02-19T03:27:25.032Z,19.50
2023-02-19T03:29:52.173Z,24.33
2023-02-19T03:32:24.385Z,23.90
2023-02-19T03:34:53.724Z,26.17
2023-02-19T03:37:25.574Z,24.25
2023-02-19T03:39:53.243Z,24.53
2023-02-19T03:42:23.531Z,22.33
2023-02-19T03:44:54.319Z,19.95
2023-02-19T03:47:34.494Z,21.90
2023-02-19T03:50:14.202Z,21.42
2023-02-19T03:52:44.176Z,23.23
2023-02-19T03:55:17.268Z,24.33
2023-02-19T03:57:44.389Z,20.27
2023-02-19T04:00:18.242Z,23.15
2023-02-19T04:02:48.376Z,26.00
2023-02-19T04:05:17.351Z,27.48
2023-02-19T04:07:47.015Z,23.90
2023-02-19T04:10:14.200Z,23.35
2023-02-19T04:12:42.123Z,23.27
2023-02-19T04:15:11.217Z,21.83
2023-02-19T04:17:39.536Z,21.98
2023-02-19T04:20:08.148Z,23.63
2023-02-19T04:22:35.808Z,24.98
2023-02-19T04:25:02.969Z,19.98
2023-02-19T04:27:30.146Z,18.60
2023-02-19T04:29:57.332Z,21.92
2023-02-19T04:32:24.528Z,18.00
2023-02-19T04:34:54.155Z,24.25
2023-02-19T04:37:21.556Z,22.35
2023-02-19T04:39:48.725Z,24.08
2023-02-19T04:42:15.889Z,23.00
2023-02-19T04:44:43.087Z,22.50
2023-02-19T04:47:10.210Z,25.00
2023-02-19T04:49:37.336Z,21.50
2023-02-19T04:52:04.635Z,25.20
2023-02-19T04:54:31.779Z,20.98
2023-02-19T04:56:58.941Z,22.55
2023-02-19T04:59:26.231Z,19.88
2023-02-19T05:01:53.486Z,27.23
2023-02-19T05:04:20.781Z,21.80
2023-02-19T05:06:48.076Z,23.02
2023-02-19T05:09:15.250Z,23.92
2023-02-19T05:11:42.839Z,22.58
2023-02-19T05:14:09.965Z,27.17
2023-02-19T05:16:37.100Z,24.92
2023-02-19T05:19:04.311Z,21.85
2023-02-19T05:21:31.465Z,19.58
2023-02-19T05:23:58.652Z,24.90
2023-02-19T05:26:26.746Z,24.35
2023-02-19T05:28:53.972Z,18.57
2023-02-19T05:31:21.327Z,20.20
2023-02-19T05:33:51.216Z,22.00
2023-02-19T05:36:18.618Z,19.08
2023-02-19T05:38:45.805Z,20.55
2023-02-19T05:41:17.361Z,20.60
2023-02-19T05:43:44.971Z,20.23
2023-02-19T05:46:13.267Z,22.50
2023-02-19T05:48:40.444Z,16.60
2023-02-19T05:51:08.728Z,24.30
2023-02-19T05:53:36.210Z,17.15
2023-02-19T05:56:03.417Z,24.90
2023-02-19T05:58:30.664Z,18.00
2023-02-19T06:00:57.795Z,17.27
2023-02-19T06:03:27.609Z,16.83
2023-02-19T06:05:54.800Z,16.98
2023-02-19T06:08:21.948Z,15.97
2023-02-19T06:10:49.114Z,14.63
2023-02-19T06:13:17.790Z,14.60
2023-02-19T06:15:45.074Z,11.75
2023-02-19T06:18:12.297Z,11.43
2023-02-19T06:20:39.538Z,15.20
2023-02-19T06:23:06.755Z,19.33
2023-02-19T06:25:34.104Z,18.75
2023-02-19T06:28:01.247Z,16.42
2023-02-19T06:30:28.469Z,16.60
2023-02-19T06:32:55.699Z,14.98
2023-02-19T06:35:22.890Z,11.52
2023-02-19T06:37:50.935Z,10.88
2023-02-19T06:40:18.149Z,11.80
2023-02-19T06:42:45.355Z,11.48
2023-02-19T06:45:12.533Z,12.43
2023-02-19T06:47:39.724Z,12.57
2023-02-19T06:50:07.054Z,11.32
2023-02-19T06:52:34.205Z,11.13
2023-02-19T06:55:01.402Z,7.93
2023-02-19T06:57:28.573Z,16.45
2023-02-19T06:59:55.694Z,9.18
2023-02-19T07:02:22.863Z,9.10
2023-02-19T07:04:49.998Z,8.40
2023-02-19T07:07:17.167Z,6.63
2023-02-19T07:09:44.373Z,10.40
2023-02-19T07:12:11.855Z,13.40
2023-02-19T07:14:38.999Z,10.65
2023-02-19T07:17:06.178Z,13.23
2023-02-19T07:19:33.409Z,10.20
2023-02-19T07:22:00.571Z,12.75
2023-02-19T07:24:27.755Z,9.23
2023-02-19T07:26:54.954Z,9.52
2023-02-19T07:29:22.104Z,11.55
2023-02-19T07:31:49.277Z,9.63
2023-02-19T07:34:16.466Z,12.40
2023-02-19T07:36:43.612Z,11.25
2023-02-19T07:39:12.748Z,8.80
2023-02-19T07:41:39.870Z,8.13
2023-02-19T07:44:07.064Z,9.75
2023-02-19T07:46:34.256Z,9.40
2023-02-19T07:49:01.384Z,11.32
2023-02-19T07:51:28.521Z,9.43
2023-02-19T07:53:55.662Z,11.15
2023-02-19T07:56:22.851Z,8.00
2023-02-19T07:58:49.978Z,9.63
2023-02-19T08:01:40.905Z,9.02
2023-02-19T08:04:08.118Z,10.60
2023-02-19T08:06:35.256Z,14.75
2023-02-19T08:09:02.444Z,8.02
2023-02-19T08:11:48.276Z,10.38
2023-02-19T08:14:15.452Z,7.10
2023-02-19T08:16:49.274Z,8.13
2023-02-19T08:19:16.464Z,8.23
2023-02-19T08:21:43.634Z,10.68
2023-02-19T08:24:10.884Z,5.40
2023-02-19T08:26:38.011Z,8.53
2023-02-19T08:29:05.688Z,8.05
2023-02-19T08:31:33.191Z,12.20
2023-02-19T08:34:00.418Z,4.65
2023-02-19T08:36:27.678Z,7.75
2023-02-19T08:38:54.864Z,25.35
2023-02-19T08:41:22.058Z,6.13
2023-02-19T08:43:49.289Z,7.90
2023-02-19T08:46:16.521Z,6.00
2023-02-19T08:48:43.731Z,6.90
2023-02-19T08:51:11.620Z,7.95
2023-02-19T08:53:39.450Z,5.72
2023-02-19T08:56:07.329Z,5.57
2023-02-19T08:58:34.527Z,5.85
2023-02-19T09:01:01.722Z,4.40
2023-02-19T09:03:28.919Z,7.05
2023-02-19T09:05:56.060Z,6.18
2023-02-19T09:08:23.255Z,7.00
2023-02-19T09:11:00.410Z,5.95
2023-02-19T09:13:27.594Z,4.93
2023-02-19T09:15:54.897Z,7.68
2023-02-19T09:18:22.165Z,6.00
2023-02-19T09:20:49.310Z,7.63
2023-02-19T09:23:16.441Z,8.35
2023-02-19T09:25:43.635Z,6.88
2023-02-19T09:28:10.820Z,6.57
2023-02-19T09:30:38.035Z,4.97
2023-02-19T09:33:06.231Z,4.63
2023-02-19T09:35:33.457Z,5.05
2023-02-19T09:38:02.015Z,9.65
2023-02-19T09:40:30.418Z,7.85
2023-02-19T09:42:57.596Z,6.18
2023-02-19T09:45:25.138Z,6.10
2023-02-19T09:47:56.227Z,5.75
2023-02-19T09:50:24.092Z,6.30
2023-02-19T09:52:57.951Z,5.27
2023-02-19T09:55:36.197Z,6.72
2023-02-19T09:58:07.512Z,4.55
2023-02-19T10:00:35.024Z,8.80
2023-02-19T10:03:06.295Z,5.60
2023-02-19T10:05:34.153Z,6.45
2023-02-19T10:08:01.354Z,7.93
2023-02-19T10:10:29.924Z,7.68
2023-02-19T10:12:57.736Z,4.10
2023-02-19T10:15:31.265Z,4.63
2023-02-19T10:17:58.400Z,5.10
2023-02-19T10:20:27.791Z,5.85
2023-02-19T10:23:13.264Z,3.53
2023-02-19T10:25:42.449Z,6.43
2023-02-19T10:28:15.117Z,5.13
2023-02-19T10:30:42.262Z,5.97
2023-02-19T10:33:15.772Z,3.30
2023-02-19T10:36:03.068Z,3.20
2023-02-19T10:38:31.543Z,3.30
2023-02-19T10:41:02.999Z,6.30
2023-02-19T10:43:33.241Z,4.33
2023-02-19T10:46:18.654Z,4.70
2023-02-19T10:49:12.348Z,1.33
2023-02-19T10:51:40.136Z,5.57
2023-02-19T10:54:17.317Z,4.45
2023-02-19T10:56:44.505Z,3.75
2023-02-19T10:59:27.501Z,3.92
2023-02-19T11:01:55.918Z,3.97
2023-02-19T11:04:23.201Z,4.87
2023-02-19T11:06:50.468Z,4.22
2023-02-19T11:09:26.675Z,9.63
2023-02-19T11:11:54.137Z,7.57
2023-02-19T11:14:23.850Z,9.45
2023-02-19T11:16:57.579Z,10.57
2023-02-19T11:19:24.761Z,5.50
2023-02-19T11:21:52.118Z,4.80
2023-02-19T11:24:38.029Z,5.38
2023-02-19T11:27:05.957Z,6.10
2023-02-19T11:29:34.992Z,7.50
2023-02-19T11:32:23.032Z,7.10
2023-02-19T11:34:50.191Z,8.52
2023-02-19T11:37:21.078Z,5.93
2023-02-19T11:39:48.884Z,7.95
2023-02-19T11:42:19.790Z,5.40
2023-02-19T11:44:53.161Z,6.72
2023-02-19T11:47:39.323Z,4.22
2023-02-19T11:50:14.110Z,5.70
2023-02-19T11:52:51.663Z,6.43
2023-02-19T11:55:20.668Z,9.02
2023-02-19T11:57:48.568Z,5.18
2023-02-19T12:00:25.916Z,3.88
2023-02-19T12:03:02.262Z,4.07
2023-02-19T12:05:48.217Z,3.20
2023-02-19T12:08:34.265Z,6.25
2023-02-19T12:11:05.103Z,9.67
2023-02-19T12:13:32.234Z,5.57
2023-02-19T12:16:02.209Z,6.90
2023-02-19T12:18:42.602Z,12.63
2023-02-19T12:21:16.414Z,5.70
2023-02-19T12:23:48.054Z,11.93
2023-02-19T12:26:15.252Z,5.68
2023-02-19T12:28:49.055Z,4.55
2023-02-19T12:31:35.306Z,5.05
2023-02-19T12:34:21.263Z,9.98
2023-02-19T12:37:11.264Z,7.50
2023-02-19T12:39:41.501Z,5.68
2023-02-19T12:42:27.064Z,5.38
2023-02-19T12:45:20.809Z,7.28
2023-02-19T12:48:08.284Z,4.03
2023-02-19T12:50:36.028Z,4.30
2023-02-19T12:53:06.294Z,1.92
2023-02-19T12:55:35.017Z,3.20
2023-02-19T12:58:04.318Z,4.35
2023-02-19T13:00:50.671Z,3.10
2023-02-19T13:03:44.216Z,2.63
2023-02-19T13:06:12.749Z,3.20
2023-02-19T13:08:48.822Z,2.28
2023-02-19T13:11:21.804Z,3.15
2023-02-19T13:13:59.714Z,2.27
2023-02-19T13:16:27.020Z,2.47
2023-02-19T13:18:55.254Z,4.03
2023-02-19T13:21:41.102Z,3.50
2023-02-19T13:24:11.037Z,5.78
2023-02-19T13:26:50.572Z,3.50
2023-02-19T13:29:20.767Z,3.85
2023-02-19T13:31:56.935Z,1.85
2023-02-19T13:34:42.872Z,3.33
2023-02-19T13:37:11.215Z,2.47
2023-02-19T13:39:38.432Z,5.10
2023-02-19T13:42:05.586Z,3.00
2023-02-19T13:44:33.413Z,2.28
2023-02-19T13:47:00.898Z,2.75
2023-02-19T13:49:28.098Z,3.67
2023-02-19T13:51:55.318Z,4.32
2023-02-19T13:54:33.354Z,3.95
2023-02-19T13:57:18.899Z,3.53
2023-02-19T13:59:46.431Z,2.40
2023-02-19T14:02:35.181Z,3.80
2023-02-19T14:05:03.418Z,4.75
2023-02-19T14:07:49.026Z,2.90
2023-02-19T14:10:36.131Z,2.95
2023-02-19T14:13:03.288Z,5.50
2023-02-19T14:15:44.337Z,3.13
2023-02-19T14:18:32.636Z,4.77
2023-02-19T14:21:07.421Z,3.63
2023-02-19T14:23:34.644Z,1.83
2023-02-19T14:26:03.686Z,4.60
2023-02-19T14:28:42.247Z,1.67
2023-02-19T14:31:14.496Z,2.28
2023-02-19T14:33:50.372Z,3.75
2023-02-19T14:36:36.158Z,3.70
2023-02-19T14:39:05.053Z,4.03
2023-02-19T14:41:33.055Z,3.40
2023-02-19T14:44:00.254Z,3.10
2023-02-19T14:46:27.415Z,2.45
2023-02-19T14:48:54.700Z,5.13
2023-02-19T14:51:26.127Z,3.28
2023-02-19T14:53:53.260Z,3.70
2023-02-19T14:56:22.170Z,4.72
2023-02-19T14:59:05.898Z,2.58
2023-02-19T15:01:33.075Z,3.67
2023-02-19T15:04:00.829Z,3.50
2023-02-19T15:06:28.046Z,1.40
2023-02-19T15:08:58.180Z,3.10
2023-02-19T15:11:25.780Z,1.63
2023-02-19T15:13:56.965Z,3.30
2023-02-19T15:16:25.798Z,3.85
2023-02-19T15:18:53.201Z,1.08
2023-02-19T15:21:30.451Z,0.95
2023-02-19T15:23:58.034Z,3.05
2023-02-19T15:26:28.204Z,1.60
2023-02-19T15:28:59.565Z,12.07
2023-02-19T15:31:26.831Z,3.63
2023-02-19T15:33:54.324Z,2.72
2023-02-19T15:36:25.997Z,2.65
2023-02-19T15:38:54.779Z,3.35
2023-02-19T15:41:25.284Z,4.25
2023-02-19T15:43:54.170Z,2.08
2023-02-19T15:46:21.838Z,3.38
2023-02-19T15:48:49.030Z,1.45
2023-02-19T15:51:17.558Z,2.45
2023-02-19T15:53:46.370Z,1.38
2023-02-19T15:56:18.697Z,2.35
2023-02-19T15:58:54.817Z,3.75
2023-02-19T16:01:36.128Z,2.23
2023-02-19T16:04:03.372Z,3.50
2023-02-19T16:06:30.599Z,3.50
2023-02-19T16:09:07.415Z,1.27
2023-02-19T16:11:41.340Z,2.15
2023-02-19T16:14:27.328Z,3.90
2023-02-19T16:16:55.620Z,2.08
2023-02-19T16:19:28.476Z,5.45
2023-02-19T16:21:55.840Z,1.17
2023-02-19T16:24:23.061Z,2.13
2023-02-19T16:26:50.249Z,1.70
2023-02-19T16:29:21.555Z,2.20
2023-02-19T16:31:49.655Z,1.20
2023-02-19T16:34:18.667Z,0.68
2023-02-19T16:36:48.413Z,2.30
2023-02-19T16:39:16.904Z,2.03
2023-02-19T16:41:47.157Z,1.35
2023-02-19T16:44:30.926Z,4.35
2023-02-19T16:47:00.103Z,4.50
2023-02-19T16:49:27.280Z,15.00
2023-02-19T16:51:54.759Z,8.98
2023-02-19T16:54:21.883Z,6.35
2023-02-19T16:56:49.054Z,5.55
2023-02-19T16:59:16.219Z,3.63
2023-02-19T17:01:43.350Z,2.53
2023-02-19T17:04:11.519Z,5.07
2023-02-19T17:06:39.357Z,4.05
2023-02-19T17:09:06.731Z,3.50
2023-02-19T17:11:33.895Z,2.92
2023-02-19T17:14:01.056Z,1.70
2023-02-19T17:16:29.431Z,2.00
2023-02-19T17:18:56.673Z,1.55
2023-02-19T17:21:25.086Z,3.30
2023-02-19T17:23:52.463Z,4.22
2023-02-19T17:26:20.560Z,6.78
2023-02-19T17:28:47.730Z,4.70
2023-02-19T17:31:15.026Z,5.90
2023-02-19T17:33:42.853Z,10.07
2023-02-19T17:36:17.103Z,46.70
2023-02-19T17:38:44.281Z,24.05
2023-02-19T17:41:11.728Z,8.13
2023-02-19T17:43:39.105Z,4.20
2023-02-19T17:46:06.310Z,13.68
2023-02-19T17:48:33.534Z,7.22
2023-02-19T17:51:00.688Z,4.15
2023-02-19T17:53:27.869Z,4.20
2023-02-19T17:55:55.284Z,3.20
2023-02-19T17:58:22.434Z,4.78
2023-02-19T18:00:49.623Z,4.05
2023-02-19T18:03:16.747Z,3.47
2023-02-19T18:05:43.948Z,5.27
2023-02-19T18:08:13.577Z,3.93
2023-02-19T18:10:40.959Z,1.58
2023-02-19T18:13:09.279Z,1.95
2023-02-19T18:15:36.460Z,4.40
2023-02-19T18:18:04.982Z,2.88
2023-02-19T18:20:32.219Z,4.03
2023-02-19T18:22:59.464Z,3.60
2023-02-19T18:25:26.630Z,4.40
2023-02-19T18:27:53.819Z,3.30
2023-02-19T18:30:22.632Z,4.03
2023-02-19T18:32:49.879Z,1.90
2023-02-19T18:35:17.840Z,3.25
2023-02-19T18:37:45.065Z,3.95
2023-02-19T18:40:12.408Z,2.67
2023-02-19T18:42:40.499Z,4.18
2023-02-19T18:45:07.908Z,4.93
2023-02-19T18:47:35.054Z,3.92
2023-02-19T18:50:02.236Z,3.65
2023-02-19T18:52:29.456Z,3.00
2023-02-19T18:54:57.499Z,9.95
2023-02-19T18:57:25.127Z,3.53
2023-02-19T18:59:52.403Z,5.28
2023-02-19T19:02:19.636Z,4.53
2023-02-19T19:04:49.469Z,5.05
2023-02-19T19:07:16.725Z,3.20
2023-02-19T19:09:44.340Z,6.03
2023-02-19T19:12:11.585Z,5.60
2023-02-19T19:14:38.801Z,5.28
2023-02-19T19:17:06.022Z,3.30
2023-02-19T19:19:33.296Z,4.47
2023-02-19T19:22:00.491Z,3.60
2023-02-19T19:24:27.651Z,7.00
2023-02-19T19:26:54.856Z,4.55
2023-02-19T19:29:22.418Z,4.32
2023-02-19T19:31:49.739Z,5.28
2023-02-19T19:34:17.138Z,3.60
2023-02-19T19:36:44.412Z,3.38
2023-02-19T19:39:11.715Z,5.43
2023-02-19T19:41:38.884Z,4.57
2023-02-19T19:44:06.172Z,5.47
2023-02-19T19:46:33.600Z,7.13
2023-02-19T19:49:00.885Z,3.15
2023-02-19T19:51:32.058Z,6.07
2023-02-19T19:53:59.317Z,5.07
2023-02-19T19:56:26.489Z,7.35
2023-02-19T19:58:53.644Z,4.95
2023-02-19T20:01:21.360Z,3.58
2023-02-19T20:03:48.733Z,5.32
2023-02-19T20:06:15.940Z,7.57
2023-02-19T20:08:43.126Z,5.53
2023-02-19T20:11:10.611Z,8.02
2023-02-19T20:13:37.942Z,4.40
2023-02-19T20:16:06.093Z,5.18
2023-02-19T20:18:34.852Z,6.05
2023-02-19T20:21:03.762Z,3.03
2023-02-19T20:23:31.018Z,4.60
2023-02-19T20:25:58.210Z,12.07
2023-02-19T20:28:25.355Z,6.37
2023-02-19T20:30:52.620Z,42.08
2023-02-19T20:33:19.836Z,7.60
2023-02-19T20:35:46.982Z,6.32
2023-02-19T20:38:17.254Z,6.20
2023-02-19T20:40:44.480Z,5.18
2023-02-19T20:43:11.724Z,4.82
2023-02-19T20:45:39.213Z,6.80
2023-02-19T20:48:06.464Z,4.33
2023-02-19T20:50:33.751Z,9.10
2023-02-19T20:53:01.224Z,3.67
2023-02-19T20:55:28.774Z,5.18
2023-02-19T20:57:55.932Z,6.20
2023-02-19T21:00:23.279Z,5.35
2023-02-19T21:02:50.561Z,4.72
2023-02-19T21:05:18.263Z,5.57
2023-02-19T21:07:45.422Z,5.47
2023-02-19T21:10:12.891Z,3.37
2023-02-19T21:12:42.813Z,5.32
2023-02-19T21:15:10.478Z,5.38
2023-02-19T21:17:37.818Z,4.47
2023-02-19T21:20:05.402Z,5.82
2023-02-19T21:22:32.715Z,4.65
2023-02-19T21:24:59.998Z,4.40
2023-02-19T21:27:27.425Z,5.35
2023-02-19T21:29:54.761Z,3.58
2023-02-19T21:32:22.235Z,3.55
2023-02-19T21:34:49.826Z,6.65
2023-02-19T21:37:17.009Z,4.65
2023-02-19T21:39:44.148Z,4.40
2023-02-19T21:42:11.321Z,2.80
2023-02-19T21:44:38.480Z,5.10
2023-02-19T21:47:05.655Z,4.78
2023-02-19T21:49:32.820Z,6.93
2023-02-19T21:52:00.062Z,4.90
2023-02-19T21:54:27.242Z,3.35
2023-02-19T21:56:54.590Z,8.60
2023-02-19T21:59:21.871Z,4.20
2023-02-19T22:01:50.527Z,5.78
2023-02-19T22:04:18.296Z,3.38
2023-02-19T22:06:45.576Z,3.78
2023-02-19T22:09:13.459Z,6.88
2023-02-19T22:11:40.804Z,2.20
2023-02-19T22:14:08.034Z,5.53
2023-02-19T22:16:35.305Z,3.33
2023-02-19T22:19:02.603Z,5.97
2023-02-19T22:21:33.983Z,4.10
2023-02-19T22:24:01.740Z,3.83
2023-02-19T22:26:30.032Z,4.97
2023-02-19T22:28:58.291Z,3.17
2023-02-19T22:31:26.087Z,6.93
2023-02-19T22:33:53.586Z,7.80
2023-02-19T22:36:21.892Z,4.88
2023-02-19T22:38:49.101Z,3.22
2023-02-19T22:41:16.542Z,5.20
2023-02-19T22:43:43.864Z,7.67
2023-02-19T22:46:20.624Z,4.20
2023-02-19T22:48:47.983Z,5.28
2023-02-19T22:51:16.044Z,6.72
2023-02-19T22:53:52.743Z,7.63
2023-02-19T22:56:21.293Z,10.25
2023-02-19T22:58:48.433Z,5.20
2023-02-19T23:01:15.808Z,5.78
2023-02-19T23:03:49.768Z,9.63
2023-02-19T23:06:17.833Z,3.20
2023-02-19T23:08:45.076Z,5.63
2023-02-19T23:11:12.526Z,4.93
2023-02-19T23:13:41.917Z,5.23
2023-02-19T23:16:09.371Z,4.93
2023-02-19T23:18:36.690Z,8.60
2023-02-19T23:21:03.872Z,8.95
2023-02-19T23:23:31.015Z,6.32
2023-02-19T23:25:58.226Z,6.03
2023-02-19T23:28:25.410Z,5.75
2023-02-19T23:30:52.716Z,3.90
2023-02-19T23:33:19.993Z,6.38
2023-02-19T23:35:47.340Z,7.55
2023-02-19T23:38:14.717Z,4.78
2023-02-19T23:40:41.959Z,5.13
2023-02-19T23:43:09.388Z,6.40
2023-02-19T23:45:36.721Z,7.78
2023-02-19T23:48:04.284Z,4.78
2023-02-19T23:50:31.540Z,7.27
2023-02-19T23:52:59.498Z,7.18
2023-02-19T23:55:27.015Z,4.20
2023-02-19T23:57:54.167Z,6.88
